Time;durP1;ratioP1;P1;durP2;ratioP2;P2;SDS_P1;SDS_P2;PMS_P1;PMS_P2;Temp;Humidity;BMP_temperature;BMP_pressure;BME280_temperature;BME280_humidity;BME280_pressure;Samples;Min_cycle;Max_cycle;Signal;HPM_P1;HPM_P2
2022/01/11 14:57:20;;;;;;;28.70;17.25;;;4.10;99.90;;;;;;4669786;23;20104;-88
2022/01/11 14:59:47;;;;;;;29.05;17.02;;;4.10;99.90;;;;;;4997811;28;20040;-85
2022/01/11 15:02:21;;;;;;;23.55;15.48;;;4.10;99.90;;;;;;5015090;28;20051;-87
2022/01/11 15:04:49;;;;;;;28.88;17.00;;;4.00;99.90;;;;;;4997976;28;20026;-88
2022/01/11 15:07:17;;;;;;;27.50;16.88;;;4.00;99.90;;;;;;4997692;28;20042;-88
2022/01/11 15:09:45;;;;;;;27.20;16.33;;;4.00;99.90;;;;;;5006662;28;20103;-85
2022/01/11 15:12:14;;;;;;;29.50;17.67;;;4.00;99.90;;;;;;5002285;28;20396;-87
2022/01/11 15:14:41;;;;;;;26.48;17.17;;;4.00;99.90;;;;;;4997917;28;20030;-87
2022/01/11 15:17:10;;;;;;;23.70;15.38;;;4.00;99.90;;;;;;5014489;28;20526;-86
2022/01/11 15:19:36;;;;;;;24.92;16.63;;;4.10;99.90;;;;;;4998051;28;20033;-87
2022/01/11 15:22:02;;;;;;;24.13;15.88;;;4.10;99.90;;;;;;5016838;28;20030;-86
2022/01/11 15:24:28;;;;;;;24.60;14.90;;;4.10;99.90;;;;;;4997719;28;20033;-87
2022/01/11 15:26:54;;;;;;;25.25;16.63;;;4.10;99.90;;;;;;5015671;28;20033;-86
2022/01/11 15:29:25;;;;;;;25.88;16.63;;;4.20;99.90;;;;;;5013962;28;20030;-86
2022/01/11 15:31:51;;;;;;;27.13;16.88;;;4.20;99.90;;;;;;4996771;28;20034;-86
2022/01/11 15:34:17;;;;;;;28.67;17.30;;;4.20;99.90;;;;;;4996938;28;20383;-87
2022/01/11 15:36:44;;;;;;;27.65;16.90;;;4.20;99.90;;;;;;4996724;28;20133;-87
2022/01/11 15:39:10;;;;;;;25.05;16.85;;;4.20;99.90;;;;;;4996995;28;20168;-87
2022/01/11 15:41:36;;;;;;;28.15;16.55;;;4.20;99.90;;;;;;5013329;28;20034;-86
2022/01/11 15:44:05;;;;;;;28.95;17.63;;;4.20;99.90;;;;;;4996763;28;20033;-85
2022/01/11 15:46:32;;;;;;;24.67;15.85;;;4.20;99.90;;;;;;4996770;28;20034;-84
2022/01/11 15:48:58;;;;;;;26.15;15.90;;;4.20;99.90;;;;;;4997064;28;20404;-86
2022/01/11 15:51:30;;;;;;;25.08;16.23;;;4.20;99.90;;;;;;4997047;28;20381;-84
2022/01/11 15:53:57;;;;;;;25.38;16.63;;;4.20;99.90;;;;;;4997262;28;20506;-85
2022/01/11 15:56:23;;;;;;;24.15;15.77;;;4.20;99.90;;;;;;4996623;28;20049;-88
2022/01/11 15:58:49;;;;;;;25.40;15.45;;;4.20;99.90;;;;;;5013452;28;20149;-86
2022/01/11 16:01:15;;;;;;;26.00;16.10;;;4.20;99.90;;;;;;4997096;28;20061;-85
2022/01/11 16:03:40;;;;;;;24.45;15.73;;;4.10;99.90;;;;;;5013858;28;20034;-86
2022/01/11 16:06:06;;;;;;;24.67;16.90;;;4.10;99.90;;;;;;5014820;28;20038;-86
2022/01/11 16:08:32;;;;;;;27.55;16.52;;;4.10;99.90;;;;;;5015115;28;20057;-88
2022/01/11 16:10:58;;;;;;;31.20;18.73;;;4.10;99.90;;;;;;4984085;28;20066;-88
2022/01/11 16:13:24;;;;;;;29.27;18.38;;;4.10;99.90;;;;;;5014987;28;20076;-86
2022/01/11 16:15:50;;;;;;;32.47;18.58;;;4.10;99.90;;;;;;4998291;28;20455;-89
2022/01/11 16:18:16;;;;;;;30.60;17.55;;;4.00;99.90;;;;;;5011076;28;20451;-84
2022/01/11 16:20:43;;;;;;;26.48;17.48;;;4.10;99.90;;;;;;4996592;28;20030;-86
2022/01/11 16:23:09;;;;;;;26.05;16.10;;;4.10;99.90;;;;;;4996990;28;20038;-86
2022/01/11 16:25:35;;;;;;;23.13;14.77;;;4.10;99.90;;;;;;4980975;28;20042;-86
2022/01/11 16:28:01;;;;;;;24.55;15.25;;;4.00;99.90;;;;;;4996742;28;20025;-86
2022/01/11 16:30:36;;;;;;;25.85;16.27;;;4.00;99.90;;;;;;4999413;28;20037;-86
2022/01/11 16:33:05;;;;;;;28.38;17.60;;;4.00;99.90;;;;;;4980564;28;20125;-85
2022/01/11 16:35:32;;;;;;;28.02;16.90;;;4.00;99.90;;;;;;4980145;28;20035;-86
2022/01/11 16:38:00;;;;;;;25.75;17.38;;;4.00;99.90;;;;;;4980001;28;20031;-86
2022/01/11 16:43:08;;;;;;;28.20;17.60;;;4.00;99.90;;;;;;4997843;28;20026;-85
2022/01/11 16:45:37;;;;;;;24.42;15.85;;;4.00;99.90;;;;;;4986498;28;20090;-86
2022/01/11 16:48:03;;;;;;;23.92;14.93;;;3.90;99.90;;;;;;4997798;28;20484;-86
2022/01/11 16:50:30;;;;;;;26.13;17.42;;;3.90;99.90;;;;;;4998291;28;20045;-88
2022/01/11 16:52:56;;;;;;;23.08;15.55;;;3.90;99.90;;;;;;4997850;28;20108;-89
2022/01/11 16:55:23;;;;;;;24.45;15.35;;;3.90;99.90;;;;;;4999384;28;20050;-90
2022/01/11 16:57:51;;;;;;;26.52;15.55;;;3.90;99.90;;;;;;4998091;28;20488;-88
2022/01/11 17:00:17;;;;;;;25.45;16.30;;;3.90;99.90;;;;;;5013503;28;20038;-89
2022/01/11 17:02:43;;;;;;;25.15;16.15;;;3.90;99.90;;;;;;4996344;28;20038;-88
2022/01/11 17:05:09;;;;;;;22.85;14.13;;;3.80;99.90;;;;;;4997485;28;20034;-89
2022/01/11 17:07:35;;;;;;;22.90;15.23;;;3.80;99.90;;;;;;4997965;28;20049;-89
2022/01/11 17:10:05;;;;;;;23.83;15.07;;;3.80;99.90;;;;;;4998366;28;20488;-88
2022/01/11 17:12:31;;;;;;;25.10;16.20;;;3.70;99.90;;;;;;4998242;28;20026;-90
2022/01/11 17:14:57;;;;;;;23.25;15.75;;;3.70;99.90;;;;;;4998457;28;20156;-89
2022/01/11 17:17:23;;;;;;;24.02;16.70;;;3.70;99.90;;;;;;5015557;28;20496;-90
2022/01/11 17:19:48;;;;;;;26.00;15.88;;;3.60;99.90;;;;;;4998310;28;20424;-90
2022/01/11 17:22:14;;;;;;;23.90;15.48;;;3.60;99.90;;;;;;4994342;28;20034;-89
2022/01/11 17:24:41;;;;;;;24.67;16.77;;;3.60;99.90;;;;;;4998684;28;20499;-90
2022/01/11 17:27:07;;;;;;;28.10;17.42;;;3.60;99.90;;;;;;4985833;28;20038;-90
2022/01/11 17:29:33;;;;;;;25.52;15.75;;;3.60;99.90;;;;;;4978188;28;20088;-89
2022/01/11 17:31:59;;;;;;;26.30;16.60;;;3.60;99.90;;;;;;4997887;28;20329;-87
2022/01/11 17:34:28;;;;;;;26.08;16.80;;;3.60;99.90;;;;;;4997657;28;20034;-90
2022/01/11 17:36:55;;;;;;;25.17;15.35;;;3.50;99.90;;;;;;4994070;28;20039;-88
2022/01/11 17:39:22;;;;;;;25.83;17.15;;;3.50;99.90;;;;;;4993173;28;20034;-91
2022/01/11 17:41:48;;;;;;;21.83;15.18;;;3.50;99.90;;;;;;4994994;28;20066;-88
2022/01/11 17:44:14;;;;;;;20.23;13.45;;;3.50;99.90;;;;;;4978346;28;20447;-87
2022/01/11 17:46:40;;;;;;;19.15;13.10;;;3.50;99.90;;;;;;4977284;28;20046;-90
2022/01/11 17:49:06;;;;;;;21.25;12.63;;;3.40;99.90;;;;;;4996312;28;20030;-88
2022/01/11 17:51:33;;;;;;;16.48;10.88;;;3.40;99.90;;;;;;5005897;28;20046;-88
2022/01/11 17:53:59;;;;;;;14.52;10.27;;;3.30;99.90;;;;;;4989275;28;20030;-88
2022/01/11 17:56:26;;;;;;;14.75;10.60;;;3.40;99.90;;;;;;4975868;28;20050;-87
2022/01/11 17:58:54;;;;;;;18.98;12.25;;;3.30;99.90;;;;;;4977755;28;20702;-85
2022/01/11 18:01:22;;;;;;;17.30;11.63;;;3.30;99.90;;;;;;5012967;28;20034;-87
2022/01/11 18:03:49;;;;;;;17.67;11.52;;;3.20;99.90;;;;;;4997751;28;20091;-87
2022/01/11 18:06:15;;;;;;;19.50;12.05;;;3.20;99.90;;;;;;4995259;28;20061;-88
2022/01/11 18:08:42;;;;;;;17.08;11.50;;;3.30;99.90;;;;;;4977633;28;20045;-86
2022/01/11 18:11:11;;;;;;;17.90;9.82;;;3.30;99.90;;;;;;5012792;28;20137;-87
2022/01/11 18:13:40;;;;;;;14.68;9.63;;;3.20;99.90;;;;;;4996515;28;20110;-87
2022/01/11 18:16:08;;;;;;;14.93;9.20;;;3.20;99.90;;;;;;4978222;28;20946;-86
2022/01/11 18:18:34;;;;;;;14.73;10.02;;;3.20;99.90;;;;;;4993340;28;20040;-88
2022/01/11 18:21:00;;;;;;;16.88;9.27;;;3.10;99.90;;;;;;4992912;28;20027;-88
2022/01/11 18:23:26;;;;;;;16.23;11.10;;;3.10;99.90;;;;;;4992325;28;20539;-87
2022/01/11 18:25:53;;;;;;;18.55;12.10;;;3.10;99.90;;;;;;5009566;28;20044;-88
2022/01/11 18:28:19;;;;;;;16.50;11.05;;;3.10;99.90;;;;;;4996146;28;20042;-88
2022/01/11 18:30:45;;;;;;;20.33;13.38;;;3.10;99.90;;;;;;4997818;28;20038;-90
2022/01/11 18:33:12;;;;;;;18.55;12.50;;;3.10;99.90;;;;;;4998951;28;20080;-89
2022/01/11 18:35:38;;;;;;;19.85;13.02;;;3.10;99.90;;;;;;4985895;28;20408;-89
2022/01/11 18:38:04;;;;;;;19.27;11.93;;;3.00;99.90;;;;;;4979340;28;20030;-91
2022/01/11 18:40:30;;;;;;;19.35;11.38;;;3.00;99.90;;;;;;4977339;28;20555;-87
2022/01/11 18:42:56;;;;;;;16.02;10.68;;;3.00;99.90;;;;;;4976657;28;20026;-88
2022/01/11 18:45:22;;;;;;;14.82;10.18;;;3.00;99.90;;;;;;4994069;28;20038;-89
2022/01/11 18:47:48;;;;;;;14.38;9.52;;;2.90;99.90;;;;;;4996576;28;20022;-88
2022/01/11 18:50:14;;;;;;;15.23;9.95;;;2.80;99.90;;;;;;4997213;28;20099;-89
2022/01/11 18:52:39;;;;;;;13.68;9.57;;;2.80;99.90;;;;;;4996195;28;20499;-88
2022/01/11 18:55:08;;;;;;;16.10;9.15;;;2.70;99.90;;;;;;4988708;28;20089;-89
2022/01/11 18:57:34;;;;;;;13.90;9.02;;;2.70;99.90;;;;;;4977020;28;20046;-89
2022/01/11 18:59:59;;;;;;;14.25;8.38;;;2.60;99.90;;;;;;4981156;28;20621;-88
2022/01/11 19:02:25;;;;;;;13.77;8.60;;;2.60;99.90;;;;;;4994865;28;20488;-90
2022/01/11 19:04:52;;;;;;;18.73;12.27;;;2.60;99.90;;;;;;4995503;28;20073;-90
2022/01/11 19:07:19;;;;;;;18.95;12.90;;;2.60;99.90;;;;;;4995019;28;20042;-89
2022/01/11 19:09:46;;;;;;;19.13;13.27;;;2.60;99.90;;;;;;4994831;28;20042;-89
2022/01/11 19:12:14;;;;;;;17.48;12.43;;;2.60;99.90;;;;;;4995040;28;20030;-89
2022/01/11 19:14:41;;;;;;;22.40;13.68;;;2.70;99.90;;;;;;4994933;28;20507;-86
2022/01/11 19:17:10;;;;;;;18.77;13.30;;;2.70;99.90;;;;;;4994572;28;20027;-89
2022/01/11 19:19:36;;;;;;;20.88;13.32;;;2.70;99.90;;;;;;4994498;28;20085;-87
2022/01/11 19:22:03;;;;;;;18.80;12.07;;;2.70;99.90;;;;;;4989652;28;20030;-87
2022/01/11 19:24:30;;;;;;;18.95;11.95;;;2.70;99.90;;;;;;4998136;28;20158;-89
2022/01/11 19:27:04;;;;;;;16.70;10.80;;;2.80;99.90;;;;;;4998054;28;20038;-88
2022/01/11 19:29:30;;;;;;;18.38;11.23;;;2.80;99.90;;;;;;5015530;28;20038;-88
2022/01/11 19:31:57;;;;;;;16.75;10.32;;;2.90;99.90;;;;;;4998266;28;20029;-89
2022/01/11 19:34:24;;;;;;;17.35;11.23;;;2.80;99.90;;;;;;4997857;28;20030;-87
2022/01/11 19:36:50;;;;;;;16.48;10.48;;;2.90;99.90;;;;;;4978573;28;20468;-88
2022/01/11 19:39:17;;;;;;;15.00;9.27;;;2.90;99.90;;;;;;4978367;28;20050;-89
2022/01/11 19:41:43;;;;;;;15.65;9.00;;;3.00;99.90;;;;;;4978165;28;20030;-89
2022/01/11 19:44:09;;;;;;;14.85;9.75;;;2.90;99.90;;;;;;4978196;28;20034;-89
2022/01/11 19:46:36;;;;;;;11.23;7.38;;;2.90;99.90;;;;;;4977868;28;20134;-87
2022/01/11 19:49:02;;;;;;;11.45;7.20;;;2.90;99.90;;;;;;4979803;28;20022;-89
2022/01/11 19:51:30;;;;;;;11.27;6.95;;;2.90;99.90;;;;;;5006951;28;20046;-89
2022/01/11 19:53:57;;;;;;;12.27;8.10;;;2.90;99.90;;;;;;4978688;28;20096;-87
2022/01/11 19:56:23;;;;;;;12.55;7.93;;;2.90;99.90;;;;;;4996285;28;20046;-88
2022/01/11 19:58:49;;;;;;;13.02;7.57;;;2.90;99.90;;;;;;4997050;28;20030;-88
2022/01/11 20:01:14;;;;;;;12.65;7.97;;;2.90;99.90;;;;;;4978157;28;20038;-89
2022/01/11 20:03:40;;;;;;;12.57;7.25;;;3.00;99.90;;;;;;4981364;28;20027;-86
2022/01/11 20:06:06;;;;;;;13.15;7.68;;;3.00;99.90;;;;;;4981975;28;20045;-88
2022/01/11 20:08:33;;;;;;;13.02;7.65;;;3.00;99.90;;;;;;4981978;28;20035;-87
2022/01/11 20:10:59;;;;;;;11.45;7.15;;;3.00;99.90;;;;;;4979788;28;20397;-89
2022/01/11 20:13:26;;;;;;;11.20;7.10;;;3.10;99.90;;;;;;4978711;28;20027;-86
2022/01/11 20:15:52;;;;;;;10.90;6.57;;;3.10;99.90;;;;;;4995801;28;20443;-85
2022/01/11 20:18:18;;;;;;;12.63;6.90;;;3.10;99.90;;;;;;4977986;28;20082;-85
2022/01/11 20:20:45;;;;;;;13.30;8.88;;;3.10;99.90;;;;;;4978128;28;20043;-86
2022/01/11 20:28:44;;;;;;;14.20;8.18;;;3.30;99.90;;;;;;4995629;28;20069;-86
2022/01/11 20:31:09;;;;;;;12.15;8.18;;;3.30;99.90;;;;;;4978028;28;20038;-87
2022/01/11 20:33:36;;;;;;;14.18;8.48;;;3.40;99.90;;;;;;4978414;28;20389;-85
2022/01/11 20:36:04;;;;;;;12.32;8.05;;;3.40;99.90;;;;;;4978090;28;20034;-87
2022/01/11 20:38:31;;;;;;;15.13;9.95;;;3.40;99.90;;;;;;4978382;28;20089;-86
2022/01/11 20:40:57;;;;;;;16.27;9.57;;;3.40;99.90;;;;;;4994718;28;20031;-85
2022/01/11 20:43:23;;;;;;;12.88;7.57;;;3.40;99.90;;;;;;4994824;28;20456;-84
2022/01/11 20:45:48;;;;;;;15.52;8.55;;;3.50;99.90;;;;;;4995548;28;20062;-86
2022/01/11 20:48:14;;;;;;;16.38;9.93;;;3.50;99.90;;;;;;4994998;28;20571;-86
2022/01/11 20:50:51;;;;;;;14.63;9.32;;;3.60;99.90;;;;;;4961734;28;20128;-86
2022/01/11 20:53:19;;;;;;;13.85;8.40;;;3.60;99.90;;;;;;4978227;28;20515;-86
2022/01/11 20:55:48;;;;;;;14.60;8.27;;;3.60;99.90;;;;;;4977994;28;20122;-87
2022/01/11 20:58:15;;;;;;;14.68;8.80;;;3.60;99.90;;;;;;4995634;28;20042;-87
2022/01/11 21:00:41;;;;;;;12.00;7.50;;;3.60;99.90;;;;;;4977900;28;20043;-86
2022/01/11 21:03:06;;;;;;;15.27;8.80;;;3.60;99.90;;;;;;4977584;28;20031;-88
2022/01/11 21:05:33;;;;;;;15.32;9.43;;;3.60;99.90;;;;;;4977475;28;20038;-87
2022/01/11 21:07:58;;;;;;;16.65;9.00;;;3.70;99.90;;;;;;4977405;28;20030;-87
2022/01/11 21:10:24;;;;;;;15.00;10.43;;;3.70;99.90;;;;;;4977278;28;20698;-87
2022/01/11 21:12:51;;;;;;;13.77;9.13;;;3.70;99.90;;;;;;4976226;28;20121;-87
2022/01/11 21:20:47;;;;;;;13.88;9.05;;;3.70;99.90;;;;;;5006985;28;20045;-85
2022/01/11 21:23:13;;;;;;;14.27;9.73;;;3.70;99.90;;;;;;4990906;28;20091;-86
2022/01/11 21:25:40;;;;;;;14.68;9.73;;;3.70;99.90;;;;;;5006524;28;20038;-85
2022/01/11 21:28:06;;;;;;;15.43;9.50;;;3.70;99.90;;;;;;4989797;28;20031;-87
2022/01/11 21:30:32;;;;;;;15.90;10.57;;;3.70;99.90;;;;;;5011670;28;20057;-85
2022/01/11 21:32:58;;;;;;;15.00;10.38;;;3.70;99.90;;;;;;4977986;28;20061;-86
2022/01/11 21:35:24;;;;;;;15.98;10.13;;;3.70;99.90;;;;;;5011501;28;20042;-87
2022/01/11 21:37:49;;;;;;;18.67;11.38;;;3.70;99.90;;;;;;5005847;28;20025;-85
2022/01/11 21:40:15;;;;;;;18.42;13.35;;;3.70;99.90;;;;;;5005525;28;20029;-86
2022/01/11 21:42:41;;;;;;;19.10;12.73;;;3.80;99.90;;;;;;5006322;28;20061;-85
2022/01/11 21:45:07;;;;;;;22.42;14.10;;;3.70;99.90;;;;;;5024985;28;20042;-86
2022/01/11 21:47:33;;;;;;;20.73;13.20;;;3.80;99.90;;;;;;5000771;28;20027;-86
2022/01/11 21:50:05;;;;;;;18.67;13.05;;;3.70;99.90;;;;;;4996876;28;20038;-86
2022/01/11 21:52:33;;;;;;;19.02;12.77;;;3.70;99.90;;;;;;4995695;28;20030;-86
2022/01/11 21:54:59;;;;;;;17.27;12.27;;;3.70;99.90;;;;;;4996746;28;20133;-84
2022/01/11 21:57:25;;;;;;;18.02;11.63;;;3.80;99.90;;;;;;4995809;28;20055;-84
2022/01/11 21:59:50;;;;;;;18.15;11.20;;;3.80;99.90;;;;;;4995118;28;20034;-85
2022/01/11 22:02:16;;;;;;;14.30;9.43;;;3.80;99.90;;;;;;4978463;28;20030;-83
2022/01/11 22:04:42;;;;;;;13.40;9.20;;;3.80;99.90;;;;;;4994910;28;20038;-85
2022/01/11 22:07:07;;;;;;;13.63;8.88;;;3.80;99.90;;;;;;4994586;28;20034;-86
2022/01/11 22:09:33;;;;;;;12.63;8.48;;;3.80;99.90;;;;;;4994913;28;20068;-86
2022/01/11 22:12:02;;;;;;;13.02;8.15;;;3.80;99.90;;;;;;4995049;28;20092;-86
2022/01/11 22:14:42;;;;;;;13.07;7.40;;;3.90;99.90;;;;;;4995246;28;20511;-85
2022/01/11 22:17:24;;;;;;;11.35;7.30;;;3.90;99.90;;;;;;4994645;28;20176;-85
2022/01/11 22:19:51;;;;;;;12.27;7.65;;;3.90;99.90;;;;;;4991223;28;20030;-85
2022/01/11 22:22:17;;;;;;;13.25;6.75;;;3.90;99.90;;;;;;4992786;28;20143;-85
2022/01/11 22:24:43;;;;;;;10.90;7.20;;;3.90;99.90;;;;;;4976982;28;20063;-85
2022/01/11 22:27:09;;;;;;;13.45;7.72;;;3.90;99.90;;;;;;4975276;28;20060;-86
2022/01/11 22:29:34;;;;;;;11.10;7.45;;;3.90;99.90;;;;;;4986204;28;20045;-86
2022/01/11 22:32:00;;;;;;;13.45;8.77;;;3.90;99.90;;;;;;4982563;28;20128;-87
2022/01/11 22:34:26;;;;;;;12.40;8.88;;;3.90;99.90;;;;;;4979080;28;20030;-86
2022/01/11 22:36:53;;;;;;;16.10;9.95;;;3.90;99.90;;;;;;5006319;28;20603;-85
2022/01/11 22:39:18;;;;;;;16.30;10.48;;;3.90;99.90;;;;;;4975157;28;20030;-87
2022/01/11 22:41:45;;;;;;;17.00;10.82;;;3.90;99.90;;;;;;4999017;28;20048;-85
2022/01/11 22:44:10;;;;;;;19.48;11.73;;;3.90;99.90;;;;;;4993151;28;20137;-85
2022/01/11 22:46:36;;;;;;;15.23;9.70;;;3.80;99.90;;;;;;4977966;28;20103;-86
2022/01/11 22:49:02;;;;;;;16.55;10.23;;;3.80;99.90;;;;;;5009134;28;20025;-85
2022/01/11 22:51:28;;;;;;;12.63;8.75;;;3.90;99.90;;;;;;4989484;28;20073;-86
2022/01/11 22:53:54;;;;;;;13.55;8.88;;;3.90;99.90;;;;;;4973979;28;20035;-87
2022/01/11 22:56:20;;;;;;;13.05;8.30;;;3.90;99.90;;;;;;4986615;28;20042;-85
2022/01/11 22:58:46;;;;;;;16.10;10.20;;;3.90;99.90;;;;;;4996376;28;20046;-86
2022/01/11 23:01:12;;;;;;;15.57;9.57;;;3.90;99.90;;;;;;4995495;28;20363;-87
2022/01/11 23:03:38;;;;;;;13.35;9.13;;;3.90;99.90;;;;;;5003749;28;20018;-86
2022/01/11 23:06:05;;;;;;;13.63;8.73;;;3.90;99.90;;;;;;5017361;28;20037;-86
2022/01/11 23:08:33;;;;;;;14.68;9.43;;;3.90;99.90;;;;;;5002708;28;20132;-86
2022/01/11 23:11:01;;;;;;;13.70;8.60;;;3.90;99.90;;;;;;5008231;28;20143;-86
2022/01/11 23:13:43;;;;;;;13.20;8.50;;;3.90;99.90;;;;;;5018070;28;20037;-86
2022/01/11 23:16:11;;;;;;;15.18;10.52;;;3.90;99.90;;;;;;5000940;28;20032;-86
2022/01/11 23:18:37;;;;;;;13.82;8.70;;;3.90;99.90;;;;;;4999789;28;20045;-85
2022/01/11 23:21:03;;;;;;;13.63;9.73;;;3.90;99.90;;;;;;5002591;28;20042;-85
2022/01/11 23:23:32;;;;;;;18.25;10.48;;;3.90;99.90;;;;;;5019353;28;20097;-86
2022/01/11 23:25:59;;;;;;;16.70;9.68;;;3.90;99.90;;;;;;5020807;28;20054;-86
2022/01/11 23:28:25;;;;;;;18.02;10.40;;;3.80;99.90;;;;;;5027681;28;20029;-86
2022/01/11 23:30:52;;;;;;;14.90;10.13;;;3.80;99.90;;;;;;5016027;28;20092;-85
2022/01/11 23:33:18;;;;;;;12.95;8.38;;;3.80;99.90;;;;;;5001438;28;20042;-85
2022/01/11 23:35:45;;;;;;;12.98;8.60;;;3.80;99.90;;;;;;5014316;28;20045;-86
2022/01/11 23:41:16;;;;;;;15.13;9.75;;;3.80;99.90;;;;;;4961583;28;20392;-87
2022/01/11 23:46:19;;;;;;;15.43;9.60;;;3.80;99.90;;;;;;4998132;28;20287;-86
2022/01/11 23:48:51;;;;;;;15.30;9.80;;;3.80;99.90;;;;;;4990232;28;20495;-86
2022/01/11 23:51:26;;;;;;;18.38;11.18;;;3.80;99.90;;;;;;4989842;28;20050;-86
2022/01/11 23:53:53;;;;;;;15.27;10.10;;;3.80;99.90;;;;;;4984191;28;20053;-87
2022/01/11 23:56:19;;;;;;;15.10;10.23;;;3.80;99.90;;;;;;4985817;28;20058;-87
2022/01/11 23:58:47;;;;;;;15.05;10.45;;;3.80;99.90;;;;;;4992463;28;20045;-86
